Time;durP1;ratioP1;P1;durP2;ratioP2;P2;SDS_P1;SDS_P2;PMS_P1;PMS_P2;Temp;Humidity;BMP_temperature;BMP_pressure;BME280_temperature;BME280_humidity;BME280_pressure;Samples;Min_cycle;Max_cycle;Signal;HPM_P1;HPM_P2
2021/12/25 00:01:09;;;;;;;26.23;16.65;;;8.70;99.90;;;;;;4979826;28;20026;-79
2021/12/25 00:03:36;;;;;;;27.48;16.42;;;8.60;99.90;;;;;;4979246;28;20034;-79
2021/12/25 00:06:03;;;;;;;24.33;15.27;;;8.60;99.90;;;;;;4982423;28;20022;-78
2021/12/25 00:08:31;;;;;;;26.83;16.00;;;8.90;99.90;;;;;;4980313;28;20747;-79
2021/12/25 00:10:58;;;;;;;24.67;15.00;;;8.60;99.90;;;;;;4978730;28;20055;-78
2021/12/25 00:13:24;;;;;;;25.27;15.57;;;8.50;99.90;;;;;;4975108;28;20069;-80
2021/12/25 00:15:51;;;;;;;25.67;16.02;;;8.60;99.90;;;;;;4975816;28;20129;-80
2021/12/25 00:18:17;;;;;;;24.95;15.90;;;8.50;99.90;;;;;;4973642;28;20038;-79
2021/12/25 00:20:43;;;;;;;26.55;16.38;;;8.50;99.90;;;;;;4977909;28;20054;-79
2021/12/25 00:23:10;;;;;;;27.83;16.00;;;8.50;99.90;;;;;;4970134;28;23384;-77
2021/12/25 00:25:41;;;;;;;24.88;15.43;;;8.50;99.90;;;;;;4969430;28;20085;-79
2021/12/25 00:31:28;;;;;;;26.92;16.20;;;8.60;99.90;;;;;;4969432;28;20087;-81
2021/12/25 00:34:00;;;;;;;23.88;14.77;;;8.60;99.90;;;;;;4974883;28;20732;-78
2021/12/25 00:36:26;;;;;;;22.33;15.02;;;8.70;99.90;;;;;;4974245;28;20479;-78
2021/12/25 00:38:53;;;;;;;29.67;15.35;;;8.60;99.90;;;;;;4974389;28;20081;-75
2021/12/25 00:41:21;;;;;;;24.35;15.05;;;8.60;99.90;;;;;;4982085;28;20102;-78
2021/12/25 00:43:47;;;;;;;22.58;15.15;;;8.50;99.90;;;;;;4970927;28;20126;-78
2021/12/25 00:46:12;;;;;;;23.90;14.52;;;8.50;99.90;;;;;;4973329;28;20027;-79
2021/12/25 00:48:38;;;;;;;24.67;14.98;;;8.50;99.90;;;;;;4979305;28;20033;-78
2021/12/25 00:51:05;;;;;;;22.88;15.02;;;8.50;99.90;;;;;;4975215;28;20062;-77
2021/12/25 00:53:31;;;;;;;23.92;15.02;;;8.50;99.90;;;;;;4990619;28;20160;-79
2021/12/25 00:55:57;;;;;;;23.75;15.20;;;8.40;99.90;;;;;;4976819;28;20500;-78
2021/12/25 00:58:23;;;;;;;23.33;14.45;;;8.40;99.90;;;;;;4983621;28;20095;-79
2021/12/25 01:00:49;;;;;;;23.67;15.02;;;8.40;99.90;;;;;;4975865;28;20655;-79
2021/12/25 01:03:14;;;;;;;24.42;16.05;;;8.40;99.90;;;;;;4973261;28;20022;-78
2021/12/25 01:05:40;;;;;;;27.20;15.95;;;8.40;99.90;;;;;;4985747;28;20049;-78
2021/12/25 01:08:06;;;;;;;26.83;15.10;;;8.40;99.90;;;;;;4976898;28;20045;-79
2021/12/25 01:10:33;;;;;;;80.45;41.67;;;8.40;99.90;;;;;;4974166;28;20093;-78
2021/12/25 01:13:14;;;;;;;93.95;48.25;;;8.40;99.90;;;;;;4976719;28;20023;-77
2021/12/25 01:15:57;;;;;;;24.38;15.98;;;8.40;99.90;;;;;;4978994;28;20044;-78
2021/12/25 01:36:46;;;;;;;25.20;15.93;;;8.30;99.90;;;;;;4980504;28;20034;-78
2021/12/25 01:39:25;;;;;;;26.60;17.02;;;8.40;99.90;;;;;;4974464;28;20027;-77
2021/12/25 01:47:43;;;;;;;26.90;16.27;;;8.30;99.90;;;;;;5000329;28;20023;-79
2021/12/25 01:50:11;;;;;;;25.98;16.13;;;8.40;99.90;;;;;;4976622;28;20034;-78
2021/12/25 01:52:37;;;;;;;25.25;16.23;;;8.40;99.90;;;;;;4967808;28;20034;-78
2021/12/25 01:55:11;;;;;;;25.98;16.02;;;8.40;99.90;;;;;;4967367;28;20030;-78
2021/12/25 01:57:37;;;;;;;27.35;15.95;;;8.40;99.90;;;;;;4978204;28;20041;-79
2021/12/25 02:00:29;;;;;;;25.83;15.10;;;8.40;99.90;;;;;;4975145;28;20022;-79
2021/12/25 02:02:55;;;;;;;25.30;15.52;;;8.40;99.90;;;;;;4973448;28;20035;-79
2021/12/25 02:05:21;;;;;;;24.77;15.15;;;8.50;99.90;;;;;;4988803;28;20093;-78
2021/12/25 02:07:47;;;;;;;25.83;15.70;;;8.40;99.90;;;;;;4980042;28;20049;-79
2021/12/25 02:10:14;;;;;;;26.35;16.33;;;8.40;99.90;;;;;;4973435;28;20091;-78
2021/12/25 02:12:40;;;;;;;25.33;16.17;;;8.40;99.90;;;;;;4976383;28;20525;-76
2021/12/25 02:15:14;;;;;;;23.45;15.65;;;8.40;99.90;;;;;;4991003;28;20114;-79
2021/12/25 02:20:26;;;;;;;22.50;14.32;;;8.40;99.90;;;;;;4978757;28;20303;-78
2021/12/25 02:22:59;;;;;;;24.42;14.48;;;8.50;99.90;;;;;;4975695;28;20061;-81
2021/12/25 02:25:25;;;;;;;21.92;13.50;;;8.40;99.90;;;;;;4975493;28;20030;-79
2021/12/25 02:27:50;;;;;;;26.38;16.10;;;8.50;99.90;;;;;;4984236;28;20459;-81
2021/12/25 02:30:16;;;;;;;19.60;12.48;;;8.40;99.90;;;;;;4983374;28;20064;-78
2021/12/25 02:32:46;;;;;;;23.17;14.55;;;8.50;99.90;;;;;;4981352;28;20085;-81
2021/12/25 02:35:13;;;;;;;23.95;14.48;;;8.50;99.90;;;;;;4982747;28;20030;-81
2021/12/25 02:37:40;;;;;;;23.27;14.75;;;8.50;99.90;;;;;;4987776;28;20022;-79
2021/12/25 02:40:08;;;;;;;22.90;14.50;;;8.50;99.90;;;;;;4976962;28;20515;-78
2021/12/25 02:42:34;;;;;;;20.98;13.82;;;8.50;99.90;;;;;;4981063;28;20030;-79
2021/12/25 02:45:00;;;;;;;24.27;14.32;;;8.50;99.90;;;;;;4980383;28;20033;-80
2021/12/25 02:47:29;;;;;;;24.95;14.55;;;8.50;99.90;;;;;;4982227;28;20026;-85
2021/12/25 02:49:55;;;;;;;21.35;13.63;;;8.50;99.90;;;;;;4974998;28;20031;-80
2021/12/25 02:52:21;;;;;;;24.27;14.07;;;8.50;99.90;;;;;;4976939;28;20033;-78
2021/12/25 02:54:47;;;;;;;22.65;14.07;;;8.50;99.90;;;;;;4986934;28;20031;-78
2021/12/25 02:57:13;;;;;;;23.70;14.48;;;8.50;99.90;;;;;;4982586;28;20041;-76
2021/12/25 02:59:40;;;;;;;24.73;14.55;;;8.50;99.90;;;;;;4991974;28;20045;-78
2021/12/25 03:02:10;;;;;;;23.15;13.95;;;8.60;99.90;;;;;;4983128;28;20027;-77
2021/12/25 03:04:41;;;;;;;25.05;14.70;;;8.50;99.90;;;;;;4995600;28;20034;-79
2021/12/25 03:07:08;;;;;;;25.30;14.60;;;8.50;99.90;;;;;;4977627;28;21300;-79
2021/12/25 03:09:34;;;;;;;26.70;14.27;;;8.50;99.90;;;;;;4981109;28;20057;-81
2021/12/25 03:12:02;;;;;;;25.80;14.10;;;8.50;99.90;;;;;;4979583;28;20023;-78
2021/12/25 03:14:49;;;;;;;27.48;15.95;;;8.90;99.90;;;;;;4983815;28;20033;-78
2021/12/25 03:17:16;;;;;;;26.00;14.85;;;8.70;99.90;;;;;;4982668;28;20031;-81
2021/12/25 03:19:42;;;;;;;25.13;14.95;;;8.50;99.90;;;;;;4974867;28;20038;-78
2021/12/25 03:22:07;;;;;;;23.92;14.90;;;8.50;99.90;;;;;;4981104;28;20037;-77
2021/12/25 03:24:34;;;;;;;24.25;14.73;;;8.50;99.90;;;;;;4978441;28;20030;-78
2021/12/25 03:26:59;;;;;;;25.50;14.70;;;8.50;99.90;;;;;;4987362;28;20103;-77
2021/12/25 03:29:27;;;;;;;25.90;15.38;;;8.50;99.90;;;;;;4972816;28;20034;-81
2021/12/25 03:31:53;;;;;;;24.83;14.60;;;8.50;99.90;;;;;;4978174;28;20101;-78
2021/12/25 03:34:19;;;;;;;22.77;14.32;;;8.90;99.90;;;;;;4981173;28;20030;-78
2021/12/25 03:36:45;;;;;;;27.17;15.57;;;8.50;99.90;;;;;;4988297;28;20038;-79
2021/12/25 03:39:13;;;;;;;26.80;15.63;;;8.50;99.90;;;;;;4979577;28;20088;-81
2021/12/25 03:41:38;;;;;;;28.35;15.80;;;8.50;99.90;;;;;;4977426;28;20025;-78
2021/12/25 03:44:04;;;;;;;27.73;16.30;;;8.50;99.90;;;;;;4977088;28;20022;-76
2021/12/25 03:46:31;;;;;;;26.38;14.95;;;8.50;99.90;;;;;;4986475;28;20163;-78
2021/12/25 03:49:06;;;;;;;25.17;15.07;;;8.50;99.90;;;;;;4976752;28;20030;-77
2021/12/25 03:59:53;;;;;;;26.33;14.75;;;8.50;99.90;;;;;;4974807;28;20110;-77
2021/12/25 04:02:25;;;;;;;30.58;15.30;;;8.60;99.90;;;;;;4974496;28;20037;-82
2021/12/25 04:04:51;;;;;;;26.02;14.93;;;8.60;99.90;;;;;;4973831;28;20501;-77
2021/12/25 04:10:03;;;;;;;28.95;16.02;;;8.60;99.90;;;;;;4965329;28;20136;-78
2021/12/25 04:12:29;;;;;;;29.60;16.95;;;8.60;99.90;;;;;;4965659;28;20038;-80
2021/12/25 04:14:55;;;;;;;30.25;15.77;;;8.60;99.90;;;;;;4981867;28;20692;-79
2021/12/25 04:17:20;;;;;;;28.60;15.10;;;8.60;99.90;;;;;;4973428;28;20038;-77
2021/12/25 04:19:46;;;;;;;29.20;16.75;;;8.60;99.90;;;;;;4973863;28;20030;-80
2021/12/25 04:22:19;;;;;;;32.20;17.10;;;8.60;99.90;;;;;;4971389;28;20029;-77
2021/12/25 04:24:46;;;;;;;29.30;15.40;;;8.50;99.90;;;;;;4974466;28;20038;-83
2021/12/25 04:27:15;;;;;;;29.70;15.07;;;8.60;99.90;;;;;;4974669;28;20023;-78
2021/12/25 04:29:48;;;;;;;25.30;14.65;;;9.10;99.90;;;;;;4975138;28;20034;-78
2021/12/25 04:33:08;;;;;;;27.17;15.57;;;8.60;99.90;;;;;;4993964;28;20065;-77
2021/12/25 05:04:43;;;;;;;29.80;17.15;;;9.00;99.90;;;;;;4979042;28;20030;-81
2021/12/25 05:07:10;;;;;;;30.38;16.73;;;8.90;99.90;;;;;;4992075;28;20045;-78
2021/12/25 05:09:35;;;;;;;29.08;17.20;;;8.90;99.90;;;;;;4984278;28;20038;-81
2021/12/25 05:12:01;;;;;;;28.58;15.90;;;8.90;99.90;;;;;;4979185;28;20148;-77
2021/12/25 05:14:27;;;;;;;29.33;16.38;;;8.90;99.90;;;;;;4977209;28;20042;-77
2021/12/25 05:16:53;;;;;;;27.38;15.23;;;9.00;99.90;;;;;;4980783;28;20101;-78
2021/12/25 05:19:19;;;;;;;30.65;15.77;;;9.00;99.90;;;;;;4977783;28;20148;-78
2021/12/25 05:21:45;;;;;;;27.17;15.43;;;9.00;99.90;;;;;;4986580;28;20030;-78
2021/12/25 05:24:11;;;;;;;26.85;14.93;;;9.90;99.90;;;;;;4982184;28;20449;-80
2021/12/25 05:26:36;;;;;;;30.42;15.98;;;9.00;99.90;;;;;;4980217;28;20034;-78
2021/12/25 05:29:03;;;;;;;27.85;15.80;;;9.00;99.90;;;;;;4976700;28;20038;-79
2021/12/25 05:31:34;;;;;;;27.02;14.63;;;9.00;99.90;;;;;;4993062;28;20035;-78
2021/12/25 05:33:59;;;;;;;24.73;14.00;;;9.00;99.90;;;;;;4974831;28;20049;-79
2021/12/25 05:36:27;;;;;;;25.08;14.55;;;9.00;99.90;;;;;;4977631;28;20030;-79
2021/12/25 05:38:58;;;;;;;30.80;14.77;;;9.10;99.90;;;;;;4977329;28;20169;-77
2021/12/25 05:41:29;;;;;;;24.88;14.20;;;10.20;99.90;;;;;;4984561;28;20037;-78
2021/12/25 05:43:55;;;;;;;27.95;15.98;;;10.40;99.90;;;;;;4987898;28;20137;-78
2021/12/25 05:46:22;;;;;;;26.38;15.75;;;9.00;99.90;;;;;;4973291;28;20085;-76
2021/12/25 05:48:50;;;;;;;24.17;14.43;;;9.00;99.90;;;;;;4987359;28;20492;-78
2021/12/25 05:51:17;;;;;;;26.77;14.13;;;9.00;99.90;;;;;;4986471;28;20026;-78
2021/12/25 05:53:43;;;;;;;22.50;13.05;;;9.10;99.90;;;;;;4973293;28;20022;-77
2021/12/25 05:56:09;;;;;;;21.23;12.10;;;9.00;99.90;;;;;;4985735;28;20034;-78
2021/12/25 05:58:34;;;;;;;24.00;12.50;;;9.10;99.90;;;;;;4980056;28;21143;-77
2021/12/25 06:01:00;;;;;;;20.15;11.70;;;9.10;99.90;;;;;;4974941;28;20025;-81
2021/12/25 06:03:26;;;;;;;23.08;11.63;;;9.10;99.90;;;;;;4992707;28;20018;-78
2021/12/25 06:05:51;;;;;;;21.35;11.77;;;9.10;99.90;;;;;;4980492;28;20037;-77
2021/12/25 06:08:17;;;;;;;19.52;11.10;;;9.00;99.90;;;;;;4980565;28;20045;-78
2021/12/25 06:10:43;;;;;;;21.02;11.63;;;9.00;99.90;;;;;;4988092;28;20030;-77
2021/12/25 06:13:15;;;;;;;20.13;11.43;;;9.10;99.90;;;;;;4982203;28;20038;-78
2021/12/25 06:15:42;;;;;;;17.45;10.25;;;9.00;99.90;;;;;;4988213;28;20402;-79
2021/12/25 06:18:08;;;;;;;19.70;12.20;;;9.10;99.90;;;;;;4989378;28;20018;-79
2021/12/25 06:20:34;;;;;;;17.95;11.20;;;9.10;99.90;;;;;;4987062;28;20102;-81
2021/12/25 06:23:00;;;;;;;18.20;10.77;;;9.10;99.90;;;;;;4977138;28;20471;-78
2021/12/25 06:25:25;;;;;;;17.73;11.25;;;9.00;99.90;;;;;;4987094;28;20030;-81
2021/12/25 06:27:51;;;;;;;18.10;10.25;;;9.10;99.90;;;;;;4988109;28;20062;-79
2021/12/25 06:30:16;;;;;;;17.58;10.60;;;9.10;99.90;;;;;;4989746;28;20069;-77
2021/12/25 06:32:42;;;;;;;21.48;11.13;;;9.10;99.90;;;;;;4982994;28;20050;-80
2021/12/25 06:35:08;;;;;;;16.67;10.15;;;11.10;99.90;;;;;;4981041;28;20025;-80
2021/12/25 06:37:34;;;;;;;19.95;10.55;;;9.10;99.90;;;;;;4981760;28;20519;-78
2021/12/25 06:39:59;;;;;;;19.02;10.75;;;9.30;99.90;;;;;;4994897;28;20069;-78
2021/12/25 06:42:25;;;;;;;19.80;10.77;;;9.30;99.90;;;;;;4985266;28;20026;-77
2021/12/25 06:44:51;;;;;;;18.90;10.70;;;9.10;99.90;;;;;;4984087;28;20043;-77
2021/12/25 06:47:16;;;;;;;20.08;10.93;;;9.10;99.90;;;;;;4991346;28;20026;-80
2021/12/25 06:49:42;;;;;;;19.30;10.70;;;9.10;99.90;;;;;;4980462;28;21227;-80
2021/12/25 06:52:08;;;;;;;18.52;10.65;;;9.20;99.90;;;;;;4978720;28;20049;-78
2021/12/25 06:54:34;;;;;;;20.13;11.23;;;9.30;99.90;;;;;;4981547;28;20042;-79
2021/12/25 06:57:01;;;;;;;16.02;10.25;;;9.90;99.90;;;;;;4979260;28;20027;-78
2021/12/25 06:59:28;;;;;;;15.38;9.38;;;9.10;99.90;;;;;;4980569;28;20026;-79
2021/12/25 07:01:54;;;;;;;16.80;10.32;;;9.00;99.90;;;;;;4984084;28;20022;-78
2021/12/25 07:04:19;;;;;;;16.63;10.02;;;9.10;99.90;;;;;;4976428;28;20101;-79
2021/12/25 07:06:45;;;;;;;15.20;9.32;;;9.00;99.90;;;;;;4977788;28;20257;-79
2021/12/25 07:09:11;;;;;;;19.13;10.07;;;9.00;99.90;;;;;;4978216;28;20038;-78
2021/12/25 07:11:37;;;;;;;19.08;9.35;;;9.00;99.90;;;;;;4969369;28;20058;-78
2021/12/25 07:14:05;;;;;;;14.15;8.98;;;9.00;99.90;;;;;;4970461;28;20034;-78
2021/12/25 07:16:31;;;;;;;16.60;8.85;;;9.00;99.90;;;;;;4975811;28;20034;-77
2021/12/25 07:18:57;;;;;;;21.90;9.30;;;9.00;99.90;;;;;;4982307;28;20505;-78
2021/12/25 07:21:23;;;;;;;15.02;8.93;;;9.40;99.90;;;;;;4982324;28;20035;-79
2021/12/25 07:23:49;;;;;;;13.57;9.15;;;9.00;99.90;;;;;;4979693;28;20022;-78
2021/12/25 07:26:18;;;;;;;14.32;9.18;;;9.00;99.90;;;;;;4982560;28;20126;-78
2021/12/25 07:28:45;;;;;;;15.63;9.98;;;9.00;99.90;;;;;;4981988;28;20522;-78
2021/12/25 07:31:11;;;;;;;13.18;8.63;;;9.00;99.90;;;;;;4971993;28;20041;-77
2021/12/25 07:33:37;;;;;;;14.90;9.00;;;9.30;99.90;;;;;;4972257;28;20034;-78
2021/12/25 07:36:03;;;;;;;13.60;9.13;;;9.10;99.90;;;;;;4974838;28;20377;-78
2021/12/25 07:38:29;;;;;;;16.15;9.50;;;9.00;99.90;;;;;;4973128;28;20145;-78
2021/12/25 07:40:55;;;;;;;14.93;9.02;;;9.10;99.90;;;;;;4993856;28;20023;-78
2021/12/25 07:43:20;;;;;;;15.45;8.80;;;9.10;99.90;;;;;;4985388;28;20038;-78
2021/12/25 07:45:48;;;;;;;15.75;9.30;;;9.00;99.90;;;;;;4985791;28;20571;-78
2021/12/25 07:48:18;;;;;;;13.77;8.00;;;9.10;99.90;;;;;;4987151;28;20031;-79
2021/12/25 07:50:43;;;;;;;15.13;8.82;;;9.10;99.90;;;;;;4977583;28;20492;-79
2021/12/25 07:53:10;;;;;;;13.82;8.27;;;9.10;99.90;;;;;;4983190;28;20041;-78
2021/12/25 07:55:36;;;;;;;17.20;9.23;;;9.10;99.90;;;;;;4982757;28;20034;-79
2021/12/25 07:58:02;;;;;;;15.20;8.05;;;9.10;99.90;;;;;;4983202;28;20034;-80
2021/12/25 08:00:28;;;;;;;13.57;8.80;;;9.10;99.90;;;;;;4989945;28;20602;-81
2021/12/25 08:02:54;;;;;;;13.82;8.40;;;9.10;99.90;;;;;;4982579;28;20486;-82
2021/12/25 08:05:20;;;;;;;13.00;8.05;;;9.10;99.90;;;;;;4975470;28;20092;-80
2021/12/25 08:07:47;;;;;;;14.93;8.75;;;9.20;99.90;;;;;;4971455;28;20018;-78
2021/12/25 08:10:18;;;;;;;15.23;8.60;;;9.10;99.90;;;;;;4981237;28;20045;-77
2021/12/25 08:12:50;;;;;;;14.75;8.38;;;9.20;99.90;;;;;;4987855;28;20018;-78
2021/12/25 08:15:18;;;;;;;13.15;8.48;;;9.10;99.90;;;;;;4986832;28;20026;-83
2021/12/25 08:17:44;;;;;;;13.73;8.45;;;9.10;99.90;;;;;;4981000;28;20038;-80
2021/12/25 08:20:11;;;;;;;15.98;7.82;;;9.10;99.90;;;;;;5002555;28;20022;-82
2021/12/25 08:22:39;;;;;;;15.40;8.13;;;9.10;99.90;;;;;;5003970;28;20094;-82
2021/12/25 08:25:06;;;;;;;13.50;7.35;;;9.10;99.90;;;;;;5005258;28;20017;-80
2021/12/25 08:27:33;;;;;;;12.38;7.75;;;9.10;99.90;;;;;;4998421;28;20062;-79
2021/12/25 08:29:59;;;;;;;14.98;7.88;;;9.50;99.90;;;;;;4988951;28;20122;-78
2021/12/25 08:32:25;;;;;;;12.95;7.30;;;9.10;99.90;;;;;;4980600;28;20090;-81
2021/12/25 08:34:50;;;;;;;11.48;7.22;;;9.10;99.90;;;;;;4989241;28;20030;-79
2021/12/25 08:37:19;;;;;;;10.88;6.95;;;9.10;99.90;;;;;;4995546;28;20061;-78
2021/12/25 08:39:45;;;;;;;13.50;7.18;;;9.10;99.90;;;;;;4987097;28;20041;-77
2021/12/25 08:42:10;;;;;;;12.23;7.15;;;9.10;99.90;;;;;;4977125;28;20038;-79
2021/12/25 08:44:41;;;;;;;12.07;7.43;;;9.10;99.90;;;;;;4983482;28;20122;-79
2021/12/25 08:47:10;;;;;;;12.85;6.93;;;9.20;99.90;;;;;;4978482;28;20034;-78
2021/12/25 08:49:38;;;;;;;11.55;7.28;;;9.20;99.90;;;;;;4985225;28;20041;-77
2021/12/25 08:52:07;;;;;;;15.45;7.68;;;9.20;99.90;;;;;;4992721;28;20050;-79
2021/12/25 08:54:33;;;;;;;12.52;7.78;;;9.20;99.90;;;;;;4990238;28;20033;-83
2021/12/25 08:57:01;;;;;;;10.65;6.68;;;9.20;99.90;;;;;;4991187;28;20428;-80
2021/12/25 08:59:27;;;;;;;11.80;7.13;;;9.20;99.90;;;;;;4985403;28;21184;-78
2021/12/25 09:01:53;;;;;;;11.20;6.95;;;9.20;99.90;;;;;;4993221;28;20057;-79
2021/12/25 09:04:18;;;;;;;13.13;6.88;;;9.20;99.90;;;;;;4979759;28;20027;-76
2021/12/25 09:06:44;;;;;;;10.98;7.13;;;9.20;99.90;;;;;;4986125;28;20102;-78
2021/12/25 09:09:10;;;;;;;11.45;6.10;;;9.30;99.90;;;;;;4985960;28;20026;-81
2021/12/25 09:11:37;;;;;;;9.52;6.07;;;9.30;99.90;;;;;;4982053;28;20065;-79
2021/12/25 09:14:04;;;;;;;10.40;6.20;;;9.30;99.90;;;;;;4977280;28;20038;-76
2021/12/25 09:16:30;;;;;;;9.30;6.20;;;9.30;99.90;;;;;;4988740;28;20101;-79
2021/12/25 09:18:55;;;;;;;8.48;5.38;;;9.30;99.90;;;;;;5005554;28;20114;-78
2021/12/25 09:21:21;;;;;;;9.50;5.78;;;9.40;99.90;;;;;;4990418;28;20022;-80
2021/12/25 09:23:47;;;;;;;9.32;5.47;;;9.40;99.90;;;;;;4989113;28;20543;-79
2021/12/25 09:26:13;;;;;;;9.60;6.35;;;9.40;99.90;;;;;;4989100;28;20115;-78
2021/12/25 09:28:39;;;;;;;9.80;5.93;;;9.40;99.90;;;;;;4997186;28;20030;-78
2021/12/25 09:31:04;;;;;;;10.45;5.53;;;9.80;99.90;;;;;;4988972;28;20209;-81
2021/12/25 09:33:30;;;;;;;11.18;6.18;;;9.40;99.90;;;;;;4988429;28;20049;-82
2021/12/25 09:35:58;;;;;;;7.95;5.53;;;9.40;99.90;;;;;;5001845;28;20046;-80
2021/12/25 09:38:24;;;;;;;8.45;4.95;;;9.40;99.90;;;;;;5000765;28;20030;-80
2021/12/25 09:40:50;;;;;;;10.27;5.70;;;10.20;99.90;;;;;;5000528;28;20142;-84
2021/12/25 09:43:19;;;;;;;9.38;5.75;;;9.30;99.90;;;;;;5000408;28;20022;-80
2021/12/25 09:45:48;;;;;;;10.98;6.00;;;10.00;99.90;;;;;;4999365;28;20130;-82
2021/12/25 09:48:13;;;;;;;9.73;5.80;;;11.10;99.90;;;;;;5002205;28;20121;-80
2021/12/25 09:50:39;;;;;;;10.68;6.47;;;10.30;99.90;;;;;;4998292;28;20530;-80
2021/12/25 09:53:12;;;;;;;10.60;5.65;;;9.50;99.90;;;;;;5005932;28;20471;-80
2021/12/25 09:55:38;;;;;;;9.38;5.22;;;10.90;99.90;;;;;;4998235;28;20039;-79
2021/12/25 09:58:05;;;;;;;11.13;5.13;;;9.50;99.90;;;;;;5000575;28;20053;-79
2021/12/25 10:00:36;;;;;;;8.10;5.00;;;10.00;99.90;;;;;;4995546;28;20023;-78
2021/12/25 10:03:02;;;;;;;7.63;4.63;;;10.90;99.90;;;;;;4996173;28;20061;-81
2021/12/25 10:05:46;;;;;;;9.23;4.95;;;10.80;99.90;;;;;;4998852;28;20030;-80
2021/12/25 10:08:18;;;;;;;7.82;4.88;;;9.60;99.90;;;;;;5001032;28;20471;-80
2021/12/25 10:10:56;;;;;;;7.47;4.50;;;11.40;99.90;;;;;;4994996;28;20030;-81
2021/12/25 10:13:37;;;;;;;9.40;5.22;;;9.70;99.90;;;;;;4995573;28;20061;-81
2021/12/25 10:16:25;;;;;;;7.47;5.35;;;9.60;99.90;;;;;;5001684;28;20026;-81
2021/12/25 10:18:54;;;;;;;7.32;4.82;;;11.30;99.90;;;;;;4992583;28;20023;-82
2021/12/25 10:21:24;;;;;;;8.68;4.72;;;11.60;99.90;;;;;;4991707;28;20022;-81
2021/12/25 10:24:15;;;;;;;6.95;4.28;;;10.40;99.90;;;;;;4987867;28;20050;-83
2021/12/25 10:26:44;;;;;;;6.72;4.38;;;9.70;99.90;;;;;;4988197;28;20507;-82
2021/12/25 10:29:24;;;;;;;5.82;4.20;;;8.30;99.90;;;;;;4995504;28;20030;-81
2021/12/25 10:31:53;;;;;;;6.75;4.47;;;9.70;99.90;;;;;;4999120;28;20105;-78
2021/12/25 10:34:22;;;;;;;6.65;4.15;;;11.50;99.90;;;;;;4992538;28;20045;-80
2021/12/25 10:36:48;;;;;;;9.55;4.20;;;9.60;99.90;;;;;;4992285;28;20035;-80
2021/12/25 10:39:21;;;;;;;8.40;4.63;;;10.80;99.90;;;;;;4995972;28;20018;-79
2021/12/25 10:41:58;;;;;;;8.38;4.18;;;9.60;99.90;;;;;;5007915;28;20038;-80
2021/12/25 10:44:28;;;;;;;7.30;4.32;;;9.60;99.90;;;;;;4992043;28;20499;-78
2021/12/25 10:47:05;;;;;;;7.80;4.03;;;10.30;99.90;;;;;;4995031;28;20038;-79
2021/12/25 10:49:34;;;;;;;7.63;4.25;;;9.60;99.90;;;;;;4996002;28;20034;-79
2021/12/25 10:52:40;;;;;;;7.70;4.20;;;10.90;99.90;;;;;;4990042;28;20026;-79
2021/12/25 10:55:18;;;;;;;8.38;4.68;;;9.60;99.90;;;;;;5010007;28;20035;-79
2021/12/25 10:57:49;;;;;;;8.32;4.70;;;9.70;99.90;;;;;;4986012;28;20036;-77
2021/12/25 11:00:30;;;;;;;6.38;4.15;;;11.20;99.90;;;;;;4986516;28;20026;-80
2021/12/25 11:03:07;;;;;;;9.07;5.57;;;9.70;99.90;;;;;;4992091;28;20042;-80
2021/12/25 11:05:39;;;;;;;6.65;4.00;;;9.90;99.90;;;;;;4991848;28;20023;-81
2021/12/25 11:08:19;;;;;;;7.18;4.13;;;11.80;99.90;;;;;;4986612;28;20117;-80
2021/12/25 11:11:24;;;;;;;5.27;3.50;;;10.00;99.90;;;;;;4988047;28;20080;-79
2021/12/25 11:13:56;;;;;;;7.10;3.38;;;10.00;99.90;;;;;;4995049;28;20026;-79
2021/12/25 11:16:28;;;;;;;4.13;2.90;;;10.10;99.90;;;;;;5000274;28;20178;-80
2021/12/25 11:19:11;;;;;;;4.90;3.13;;;11.90;99.90;;;;;;4991083;28;20035;-80
2021/12/25 11:21:54;;;;;;;5.28;3.10;;;10.20;99.90;;;;;;4993007;28;20535;-79
2021/12/25 11:24:23;;;;;;;6.63;3.10;;;11.60;99.90;;;;;;4994423;28;20373;-80
2021/12/25 11:27:00;;;;;;;5.60;3.38;;;12.10;99.90;;;;;;4994230;28;20065;-78
2021/12/25 11:29:28;;;;;;;5.78;3.22;;;12.00;99.90;;;;;;4986610;28;20046;-87
2021/12/25 11:31:56;;;;;;;5.55;3.00;;;10.30;99.90;;;;;;4989819;28;20027;-80
2021/12/25 11:34:24;;;;;;;3.20;2.40;;;12.40;99.90;;;;;;4992634;28;20022;-83
2021/12/25 11:36:52;;;;;;;5.30;2.70;;;12.40;99.90;;;;;;4990579;28;20126;-80
2021/12/25 11:39:20;;;;;;;4.63;2.50;;;11.60;99.90;;;;;;4988569;28;20034;-79
2021/12/25 11:41:48;;;;;;;4.25;2.40;;;12.50;99.90;;;;;;4986894;28;20027;-79
2021/12/25 11:44:31;;;;;;;4.93;2.80;;;11.60;99.90;;;;;;4982960;28;20026;-81
2021/12/25 11:46:57;;;;;;;4.95;2.70;;;11.20;99.90;;;;;;5002833;28;20050;-81
2021/12/25 11:49:22;;;;;;;5.03;3.55;;;11.40;99.90;;;;;;4989904;28;20026;-85
2021/12/25 11:51:49;;;;;;;5.47;3.08;;;11.60;99.90;;;;;;4987350;28;20030;-79
2021/12/25 11:57:22;;;;;;;9.40;4.57;;;10.40;99.90;;;;;;4987870;28;20058;-78
2021/12/25 11:59:50;;;;;;;7.75;4.20;;;10.30;99.90;;;;;;4990946;28;20499;-83
2021/12/25 12:02:39;;;;;;;9.00;4.47;;;12.40;99.90;;;;;;5004303;28;20029;-80
2021/12/25 12:05:29;;;;;;;8.30;4.85;;;11.40;99.90;;;;;;4985162;28;20038;-83
2021/12/25 12:08:09;;;;;;;7.82;4.32;;;10.30;99.90;;;;;;4988977;28;20373;-80
2021/12/25 12:10:51;;;;;;;8.43;4.43;;;10.30;99.90;;;;;;4988591;28;20018;-79
2021/12/25 12:13:24;;;;;;;7.70;3.97;;;10.30;99.90;;;;;;4984035;28;20403;-80
2021/12/25 12:15:57;;;;;;;7.07;4.20;;;10.40;99.90;;;;;;4986770;28;20038;-80
2021/12/25 12:18:26;;;;;;;8.25;4.30;;;10.80;99.90;;;;;;4985058;28;20060;-84
2021/12/25 12:21:01;;;;;;;7.68;4.25;;;11.50;99.90;;;;;;4991602;28;20018;-79
2021/12/25 12:23:47;;;;;;;6.68;3.55;;;11.20;99.90;;;;;;4989663;28;20096;-79
2021/12/25 12:26:13;;;;;;;9.05;4.07;;;12.20;99.90;;;;;;4987303;28;20030;-79
2021/12/25 12:28:52;;;;;;;7.40;3.85;;;10.60;99.90;;;;;;4989691;28;20081;-78
2021/12/25 12:31:38;;;;;;;7.03;3.85;;;11.70;99.90;;;;;;4988379;28;20054;-77
2021/12/25 12:34:37;;;;;;;7.22;3.80;;;11.70;99.90;;;;;;4995495;28;20334;-82
2021/12/25 12:37:14;;;;;;;8.63;4.15;;;11.80;99.90;;;;;;5003210;28;20125;-80
2021/12/25 12:39:56;;;;;;;7.38;4.38;;;11.70;99.90;;;;;;4978384;28;20030;-79
2021/12/25 12:42:41;;;;;;;5.50;3.53;;;12.80;99.90;;;;;;4981983;28;20041;-79
2021/12/25 12:45:21;;;;;;;8.68;5.70;;;10.60;99.90;;;;;;4991018;28;20049;-79
2021/12/25 12:48:09;;;;;;;5.50;3.97;;;10.60;99.90;;;;;;4992916;28;20035;-80
2021/12/25 12:50:38;;;;;;;8.68;3.90;;;10.50;99.90;;;;;;4987849;28;20058;-78
2021/12/25 12:53:09;;;;;;;7.97;4.20;;;10.40;99.90;;;;;;4992437;28;20136;-78
2021/12/25 12:55:37;;;;;;;;;;;10.50;99.90;;;;;;4989184;28;20138;-77
2021/12/25 12:58:20;;;;;;;6.05;4.15;;;10.50;99.90;;;;;;4993736;28;19913;-77
2021/12/25 13:00:55;;;;;;;6.57;4.40;;;10.50;99.90;;;;;;4987539;28;20033;-78
2021/12/25 13:03:22;;;;;;;6.25;3.67;;;10.40;99.90;;;;;;4986327;28;20065;-78
2021/12/25 13:06:02;;;;;;;7.65;4.47;;;10.40;99.90;;;;;;4998070;28;20042;-84
2021/12/25 13:08:33;;;;;;;8.53;4.33;;;10.30;99.90;;;;;;4992724;28;20026;-82
2021/12/25 13:11:10;;;;;;;5.78;3.60;;;10.40;99.90;;;;;;4990019;28;20121;-79
2021/12/25 13:13:41;;;;;;;4.88;3.03;;;10.40;99.90;;;;;;4985278;28;20373;-79
2021/12/25 13:16:13;;;;;;;7.72;4.20;;;10.40;99.90;;;;;;4994286;28;20053;-80
2021/12/25 13:18:45;;;;;;;6.50;3.65;;;10.30;99.90;;;;;;4990767;28;20074;-80
2021/12/25 13:21:18;;;;;;;6.57;3.67;;;10.30;99.90;;;;;;4996180;28;20065;-79
2021/12/25 13:23:52;;;;;;;8.98;3.95;;;10.70;99.90;;;;;;4998745;28;20018;-77
2021/12/25 13:26:26;;;;;;;6.18;3.45;;;10.20;99.90;;;;;;4992585;28;20023;-77
2021/12/25 13:28:53;;;;;;;6.97;4.00;;;10.30;99.90;;;;;;4991169;28;20088;-78
2021/12/25 13:31:21;;;;;;;7.05;3.75;;;10.20;99.90;;;;;;4999549;28;20022;-83
2021/12/25 13:33:53;;;;;;;5.90;3.17;;;10.20;99.90;;;;;;4991246;28;20034;-77
2021/12/25 13:36:22;;;;;;;6.72;3.60;;;11.10;99.90;;;;;;4990861;28;20034;-78
2021/12/25 13:39:08;;;;;;;5.95;3.50;;;10.20;99.90;;;;;;4989730;28;20039;-80
2021/12/25 13:41:46;;;;;;;6.13;3.55;;;10.20;99.90;;;;;;4995099;28;20045;-80
2021/12/25 13:44:19;;;;;;;7.95;3.90;;;10.30;99.90;;;;;;4990060;28;20093;-81
2021/12/25 13:46:47;;;;;;;6.57;4.20;;;10.30;99.90;;;;;;4986833;28;20034;-78
2021/12/25 13:49:36;;;;;;;8.50;4.38;;;10.30;99.90;;;;;;4999935;28;20030;-80
2021/12/25 13:52:21;;;;;;;8.07;4.35;;;10.30;99.90;;;;;;4988290;28;20399;-80
2021/12/25 13:54:55;;;;;;;9.38;4.85;;;10.30;99.90;;;;;;4990950;28;20142;-79
2021/12/25 13:57:27;;;;;;;6.90;4.32;;;10.30;99.90;;;;;;4994225;28;20080;-79
2021/12/25 14:00:00;;;;;;;5.82;3.67;;;10.30;99.90;;;;;;4995809;28;20436;-80
2021/12/25 14:02:29;;;;;;;6.07;3.47;;;10.30;99.90;;;;;;4993886;28;20023;-78
2021/12/25 14:04:56;;;;;;;7.18;4.13;;;10.30;99.90;;;;;;4989414;28;20076;-79
2021/12/25 14:07:26;;;;;;;7.43;4.65;;;10.30;99.90;;;;;;4994725;28;20261;-79
2021/12/25 14:10:03;;;;;;;9.60;4.20;;;10.30;99.90;;;;;;5004981;28;20406;-80